This is the latest recevied weather packets stored in our database for station/object YO3FVR-WX. If no packets are shown the sender has not sent any weather packets the latest 10 day(s).
| Time | Temp. | Humidity | Pressure | Rain* | Wind** | Luminosity | Snow |
|---|---|---|---|---|---|---|---|
| 1777665794 | 9.44° C | 57% | 1020.1 hPa | 0 mm | - | - | - |
| 1777664564 | 9.44° C | 57% | 1020.1 hPa | 0 mm | - | - | - |
| 1777663364 | 9.44° C | 56% | 1020 hPa | 0 mm | - | - | - |
| 1777662134 | 9.44° C | 54% | 1020 hPa | 0 mm | - | - | - |
| 1777660905 | 10° C | 52% | 1019.9 hPa | 0 mm | - | - | - |
| 1777659704 | 10.56° C | 52% | 1019.8 hPa | 0 mm | - | - | - |
| 1777658474 | 11.11° C | 50% | 1019.7 hPa | 0 mm | - | - | - |
| 1777657244 | 11.67° C | 49% | 1019.4 hPa | 0 mm | - | - | - |
| 1777656044 | 12.22° C | 46% | 1019.5 hPa | 0 mm | - | - | - |
| 1777654815 | 13.89° C | 43% | 1019.3 hPa | 0 mm | - | - | - |
| 1777653585 | 16.67° C | 41% | 1019.2 hPa | 0 mm | - | - | - |
| 1777652355 | 16.67° C | 41% | 1019.1 hPa | 0 mm | - | - | - |
| 1777651154 | 16.11° C | 40% | 1019 hPa | 0 mm | - | - | - |
| 1777649925 | 15° C | 41% | 1019 hPa | 0 mm | - | - | - |
| 1777648695 | 15° C | 41% | 1019.2 hPa | 0 mm | - | - | - |
| 1777647466 | 14.44° C | 42% | 1019.2 hPa | 0 mm | - | - | - |
| 1777646266 | 14.44° C | 41% | 1019.3 hPa | 0 mm | - | - | - |
| 1777645034 | 13.33° C | 42% | 1019.3 hPa | 0 mm | - | - | - |
| 1777643804 | 13.33° C | 42% | 1019.5 hPa | 0 mm | - | - | - |
| 1777642604 | 15° C | 41% | 1019.6 hPa | 0 mm | - | - | - |
| 1777641375 | 16.67° C | 38% | 1020.4 hPa | 0 mm | - | - | - |
| 1777640146 | 13.33° C | 41% | 1020.4 hPa | 0 mm | - | - | - |
| 1777638925 | 13.33° C | 41% | 1020.4 hPa | 0 mm | - | - | - |
| 1777637702 | 13.33° C | 43% | 1020.4 hPa | 0 mm | - | - | - |
| 1777636467 | 13.33° C | 43% | 1020.4 hPa | 0 mm | - | - | - |
* Rain latest hour (hover to see other rain measurements)
** Current wind speed in m/s (hover to see current wind gust speed)